sensor_id;sensor_type;location;lat;lon;timestamp;pressure;altitude;pressure_sealevel;temperature;humidity
44441;BME280;30146;52.268;20.944;2023-01-26T00:01:11;101262.91;;;1.91;67.43
44441;BME280;30146;52.268;20.944;2023-01-26T00:03:42;101261.39;;;1.90;67.59
44441;BME280;30146;52.268;20.944;2023-01-26T00:06:15;101259.98;;;1.93;67.85
44441;BME280;30146;52.268;20.944;2023-01-26T00:08:48;101254.92;;;1.93;67.71
44441;BME280;30146;52.268;20.944;2023-01-26T00:11:21;101252.75;;;1.94;67.66
44441;BME280;30146;52.268;20.944;2023-01-26T00:13:56;101259.05;;;1.95;67.56
44441;BME280;30146;52.268;20.944;2023-01-26T00:16:28;101261.05;;;1.95;67.59
44441;BME280;30146;52.268;20.944;2023-01-26T00:18:59;101254.48;;;1.95;67.67
44441;BME280;30146;52.268;20.944;2023-01-26T00:21:30;101251.52;;;1.97;67.83
44441;BME280;30146;52.268;20.944;2023-01-26T00:24:01;101251.63;;;1.99;67.90
44441;BME280;30146;52.268;20.944;2023-01-26T00:26:33;101249.34;;;2.01;67.78
44441;BME280;30146;52.268;20.944;2023-01-26T00:29:04;101240.82;;;2.03;67.93
44441;BME280;30146;52.268;20.944;2023-01-26T00:31:35;101240.32;;;2.07;68.03
44441;BME280;30146;52.268;20.944;2023-01-26T00:34:06;101242.75;;;2.09;68.07
44441;BME280;30146;52.268;20.944;2023-01-26T00:36:37;101241.48;;;2.11;67.86
44441;BME280;30146;52.268;20.944;2023-01-26T00:39:08;101243.04;;;2.13;67.74
44441;BME280;30146;52.268;20.944;2023-01-26T00:41:39;101240.90;;;2.14;67.97
44441;BME280;30146;52.268;20.944;2023-01-26T00:44:28;101239.20;;;2.14;67.43
44441;BME280;30146;52.268;20.944;2023-01-26T00:46:59;101235.96;;;2.13;67.55
44441;BME280;30146;52.268;20.944;2023-01-26T00:49:30;101234.98;;;2.14;67.87
44441;BME280;30146;52.268;20.944;2023-01-26T00:52:02;101231.41;;;2.17;67.96
44441;BME280;30146;52.268;20.944;2023-01-26T00:54:33;101228.23;;;2.18;67.90
44441;BME280;30146;52.268;20.944;2023-01-26T00:57:04;101221.83;;;2.18;67.61
44441;BME280;30146;52.268;20.944;2023-01-26T00:59:37;101222.31;;;2.17;67.66
44441;BME280;30146;52.268;20.944;2023-01-26T01:02:08;101226.21;;;2.18;67.51
44441;BME280;30146;52.268;20.944;2023-01-26T01:04:39;101228.73;;;2.17;67.67
44441;BME280;30146;52.268;20.944;2023-01-26T01:07:10;101227.04;;;2.17;67.64
44441;BME280;30146;52.268;20.944;2023-01-26T01:09:41;101229.45;;;2.19;67.76
44441;BME280;30146;52.268;20.944;2023-01-26T01:12:13;101227.92;;;2.19;67.55
44441;BME280;30146;52.268;20.944;2023-01-26T01:14:44;101229.40;;;2.18;67.63
44441;BME280;30146;52.268;20.944;2023-01-26T01:17:15;101229.71;;;2.17;67.50
44441;BME280;30146;52.268;20.944;2023-01-26T01:19:47;101226.35;;;2.17;67.55
44441;BME280;30146;52.268;20.944;2023-01-26T01:22:18;101216.38;;;2.17;67.57
44441;BME280;30146;52.268;20.944;2023-01-26T01:24:49;101212.69;;;2.17;67.78
44441;BME280;30146;52.268;20.944;2023-01-26T01:27:20;101207.68;;;2.18;67.43
44441;BME280;30146;52.268;20.944;2023-01-26T01:29:51;101200.36;;;2.21;67.78
44441;BME280;30146;52.268;20.944;2023-01-26T01:32:22;101192.59;;;2.25;68.00
44441;BME280;30146;52.268;20.944;2023-01-26T01:34:53;101186.10;;;2.28;68.06
44441;BME280;30146;52.268;20.944;2023-01-26T01:37:24;101188.19;;;2.29;67.80
44441;BME280;30146;52.268;20.944;2023-01-26T01:39:55;101181.16;;;2.31;68.04
44441;BME280;30146;52.268;20.944;2023-01-26T01:42:27;101179.86;;;2.33;67.88
44441;BME280;30146;52.268;20.944;2023-01-26T01:45:34;101172.46;;;2.33;68.00
44441;BME280;30146;52.268;20.944;2023-01-26T01:48:14;101167.39;;;2.33;67.80
44441;BME280;30146;52.268;20.944;2023-01-26T01:50:47;101164.32;;;2.32;67.62
44441;BME280;30146;52.268;20.944;2023-01-26T01:53:22;101158.99;;;2.29;67.52
44441;BME280;30146;52.268;20.944;2023-01-26T01:55:59;101155.00;;;2.26;67.40
44441;BME280;30146;52.268;20.944;2023-01-26T01:58:29;101151.64;;;2.22;67.46
44441;BME280;30146;52.268;20.944;2023-01-26T02:01:01;101150.60;;;2.17;67.26
44441;BME280;30146;52.268;20.944;2023-01-26T02:03:33;101150.16;;;2.14;67.70
44441;BME280;30146;52.268;20.944;2023-01-26T02:06:09;101146.20;;;2.12;67.66
44441;BME280;30146;52.268;20.944;2023-01-26T02:08:45;101147.89;;;2.12;67.72
44441;BME280;30146;52.268;20.944;2023-01-26T02:11:20;101143.63;;;2.11;67.87
44441;BME280;30146;52.268;20.944;2023-01-26T02:13:53;101146.41;;;2.08;67.46
44441;BME280;30146;52.268;20.944;2023-01-26T02:16:24;101146.52;;;2.07;67.76
44441;BME280;30146;52.268;20.944;2023-01-26T02:18:55;101143.70;;;2.08;68.04
44441;BME280;30146;52.268;20.944;2023-01-26T02:21:27;101145.79;;;2.10;67.91
44441;BME280;30146;52.268;20.944;2023-01-26T02:24:05;101140.42;;;2.10;67.86
44441;BME280;30146;52.268;20.944;2023-01-26T02:26:38;101132.86;;;2.11;68.01
44441;BME280;30146;52.268;20.944;2023-01-26T02:29:11;101130.66;;;2.11;67.73
44441;BME280;30146;52.268;20.944;2023-01-26T02:31:44;101129.00;;;2.12;67.95
44441;BME280;30146;52.268;20.944;2023-01-26T02:34:15;101125.45;;;2.11;67.93
44441;BME280;30146;52.268;20.944;2023-01-26T02:36:57;101125.04;;;2.14;68.02
44441;BME280;30146;52.268;20.944;2023-01-26T02:39:37;101126.26;;;2.16;68.27
44441;BME280;30146;52.268;20.944;2023-01-26T02:42:11;101124.74;;;2.16;67.87
44441;BME280;30146;52.268;20.944;2023-01-26T02:45:01;101124.09;;;2.16;68.12
44441;BME280;30146;52.268;20.944;2023-01-26T02:47:32;101122.88;;;2.15;68.09
44441;BME280;30146;52.268;20.944;2023-01-26T02:50:07;101121.51;;;2.15;67.85
44441;BME280;30146;52.268;20.944;2023-01-26T02:52:40;101120.34;;;2.15;68.11
44441;BME280;30146;52.268;20.944;2023-01-26T02:55:16;101115.40;;;2.14;67.85
44441;BME280;30146;52.268;20.944;2023-01-26T02:57:56;101111.52;;;2.13;68.17
44441;BME280;30146;52.268;20.944;2023-01-26T03:00:30;101105.09;;;2.13;68.24
44441;BME280;30146;52.268;20.944;2023-01-26T03:03:02;101098.71;;;2.14;68.20
44441;BME280;30146;52.268;20.944;2023-01-26T03:05:37;101090.67;;;2.15;68.43
44441;BME280;30146;52.268;20.944;2023-01-26T03:08:08;101084.28;;;2.16;68.43
44441;BME280;30146;52.268;20.944;2023-01-26T03:10:40;101082.95;;;2.17;68.15
44441;BME280;30146;52.268;20.944;2023-01-26T03:13:11;101086.54;;;2.18;68.19
44441;BME280;30146;52.268;20.944;2023-01-26T03:15:42;101083.86;;;2.18;68.15
44441;BME280;30146;52.268;20.944;2023-01-26T03:18:17;101084.73;;;2.19;68.20
44441;BME280;30146;52.268;20.944;2023-01-26T03:21:11;101079.06;;;2.21;68.56
44441;BME280;30146;52.268;20.944;2023-01-26T03:24:00;101073.94;;;2.23;68.48
44441;BME280;30146;52.268;20.944;2023-01-26T03:26:50;101067.52;;;2.23;68.20
44441;BME280;30146;52.268;20.944;2023-01-26T03:29:39;101065.30;;;2.23;68.38
44441;BME280;30146;52.268;20.944;2023-01-26T03:32:11;101062.80;;;2.23;68.43
44441;BME280;30146;52.268;20.944;2023-01-26T03:34:44;101059.38;;;2.22;68.38
44441;BME280;30146;52.268;20.944;2023-01-26T03:37:15;101059.13;;;2.20;68.21
44441;BME280;30146;52.268;20.944;2023-01-26T03:40:00;101058.23;;;2.18;68.22
44441;BME280;30146;52.268;20.944;2023-01-26T03:42:49;101054.89;;;2.19;68.35
44441;BME280;30146;52.268;20.944;2023-01-26T03:45:37;101054.58;;;2.20;68.56
44441;BME280;30146;52.268;20.944;2023-01-26T03:48:26;101052.75;;;2.21;68.27
44441;BME280;30146;52.268;20.944;2023-01-26T03:51:16;101052.64;;;2.22;68.60
44441;BME280;30146;52.268;20.944;2023-01-26T03:54:05;101047.00;;;2.21;68.46
44441;BME280;30146;52.268;20.944;2023-01-26T03:56:54;101040.25;;;2.20;68.53
44441;BME280;30146;52.268;20.944;2023-01-26T03:59:25;101041.05;;;2.20;68.35
44441;BME280;30146;52.268;20.944;2023-01-26T04:02:13;101043.64;;;2.21;68.47
44441;BME280;30146;52.268;20.944;2023-01-26T04:05:03;101041.58;;;2.20;68.43
44441;BME280;30146;52.268;20.944;2023-01-26T04:08:02;101038.85;;;2.19;68.15
44441;BME280;30146;52.268;20.944;2023-01-26T04:10:55;101034.79;;;2.18;68.57
44441;BME280;30146;52.268;20.944;2023-01-26T04:13:27;101034.64;;;2.19;68.35
44441;BME280;30146;52.268;20.944;2023-01-26T04:16:23;101031.54;;;2.17;68.10
44441;BME280;30146;52.268;20.944;2023-01-26T04:19:12;101029.00;;;2.17;68.40
44441;BME280;30146;52.268;20.944;2023-01-26T04:22:00;101030.13;;;2.16;68.31
44441;BME280;30146;52.268;20.944;2023-01-26T04:24:34;101031.95;;;2.15;68.37
44441;BME280;30146;52.268;20.944;2023-01-26T04:27:05;101034.67;;;2.16;68.40
44441;BME280;30146;52.268;20.944;2023-01-26T04:29:40;101035.55;;;2.16;68.46
44441;BME280;30146;52.268;20.944;2023-01-26T04:32:11;101030.36;;;2.17;68.62
44441;BME280;30146;52.268;20.944;2023-01-26T04:34:42;101036.15;;;2.19;68.69
44441;BME280;30146;52.268;20.944;2023-01-26T04:37:20;101036.47;;;2.23;68.92
44441;BME280;30146;52.268;20.944;2023-01-26T04:39:53;101036.52;;;2.24;68.42
44441;BME280;30146;52.268;20.944;2023-01-26T04:42:24;101032.45;;;2.24;68.46
44441;BME280;30146;52.268;20.944;2023-01-26T04:44:56;101029.64;;;2.21;68.34
44441;BME280;30146;52.268;20.944;2023-01-26T04:47:28;101033.48;;;2.20;68.22
44441;BME280;30146;52.268;20.944;2023-01-26T04:49:59;101033.39;;;2.18;68.19
44441;BME280;30146;52.268;20.944;2023-01-26T04:52:30;101031.85;;;2.17;68.02
44441;BME280;30146;52.268;20.944;2023-01-26T04:55:01;101029.69;;;2.18;68.56
44441;BME280;30146;52.268;20.944;2023-01-26T04:57:34;101025.52;;;2.19;68.25
44441;BME280;30146;52.268;20.944;2023-01-26T05:00:09;101026.73;;;2.20;68.34
44441;BME280;30146;52.268;20.944;2023-01-26T05:02:41;101026.71;;;2.24;68.63
44441;BME280;30146;52.268;20.944;2023-01-26T05:05:12;101029.39;;;2.28;68.77
44441;BME280;30146;52.268;20.944;2023-01-26T05:07:43;101019.85;;;2.30;68.51
44441;BME280;30146;52.268;20.944;2023-01-26T05:10:16;101017.49;;;2.30;68.54
44441;BME280;30146;52.268;20.944;2023-01-26T05:13:16;101014.88;;;2.27;68.33
44441;BME280;30146;52.268;20.944;2023-01-26T05:16:04;101020.09;;;2.27;68.36
44441;BME280;30146;52.268;20.944;2023-01-26T05:18:57;101022.28;;;2.27;68.40
44441;BME280;30146;52.268;20.944;2023-01-26T05:21:48;101014.48;;;2.26;68.22
44441;BME280;30146;52.268;20.944;2023-01-26T05:24:19;101012.73;;;2.24;68.28
44441;BME280;30146;52.268;20.944;2023-01-26T05:27:06;101015.27;;;2.24;68.37
44441;BME280;30146;52.268;20.944;2023-01-26T05:30:01;101012.89;;;2.24;68.48
44441;BME280;30146;52.268;20.944;2023-01-26T05:32:35;101008.78;;;2.22;68.46
44441;BME280;30146;52.268;20.944;2023-01-26T05:35:08;101004.71;;;2.22;68.28
44441;BME280;30146;52.268;20.944;2023-01-26T05:37:39;101007.69;;;2.20;68.22
44441;BME280;30146;52.268;20.944;2023-01-26T05:40:13;101010.50;;;2.19;68.46
44441;BME280;30146;52.268;20.944;2023-01-26T05:42:44;101013.15;;;2.17;68.52
44441;BME280;30146;52.268;20.944;2023-01-26T05:45:40;101014.14;;;2.16;68.56
44441;BME280;30146;52.268;20.944;2023-01-26T05:48:13;101008.35;;;2.15;68.39
44441;BME280;30146;52.268;20.944;2023-01-26T05:50:46;101007.14;;;2.14;68.56
44441;BME280;30146;52.268;20.944;2023-01-26T05:53:21;101007.15;;;2.14;68.63
44441;BME280;30146;52.268;20.944;2023-01-26T05:55:53;101013.52;;;2.13;68.30
44441;BME280;30146;52.268;20.944;2023-01-26T05:58:26;101016.06;;;2.14;68.57
44441;BME280;30146;52.268;20.944;2023-01-26T06:00:57;101019.50;;;2.15;69.00
44441;BME280;30146;52.268;20.944;2023-01-26T06:03:30;101022.88;;;2.16;68.50
44441;BME280;30146;52.268;20.944;2023-01-26T06:06:01;101026.38;;;2.14;68.58
44441;BME280;30146;52.268;20.944;2023-01-26T06:08:59;101019.87;;;2.11;68.58
44441;BME280;30146;52.268;20.944;2023-01-26T06:11:50;101015.98;;;2.11;68.57
44441;BME280;30146;52.268;20.944;2023-01-26T06:14:32;101013.20;;;2.09;68.61
44441;BME280;30146;52.268;20.944;2023-01-26T06:17:03;101013.91;;;2.10;68.72
44441;BME280;30146;52.268;20.944;2023-01-26T06:19:36;101014.03;;;2.08;68.73
44441;BME280;30146;52.268;20.944;2023-01-26T06:22:10;101013.14;;;2.07;68.57
44441;BME280;30146;52.268;20.944;2023-01-26T06:24:44;101011.19;;;2.04;68.52
44441;BME280;30146;52.268;20.944;2023-01-26T06:27:17;101011.64;;;2.03;68.51
44441;BME280;30146;52.268;20.944;2023-01-26T06:29:50;101004.14;;;2.01;68.68
44441;BME280;30146;52.268;20.944;2023-01-26T06:32:22;101006.54;;;2.02;68.78
44441;BME280;30146;52.268;20.944;2023-01-26T06:34:56;101004.84;;;2.01;68.59
44441;BME280;30146;52.268;20.944;2023-01-26T06:37:27;101006.00;;;2.01;68.86
44441;BME280;30146;52.268;20.944;2023-01-26T06:39:58;101006.48;;;2.00;68.69
44441;BME280;30146;52.268;20.944;2023-01-26T06:42:29;101004.76;;;1.99;69.02
44441;BME280;30146;52.268;20.944;2023-01-26T06:45:01;101008.54;;;1.97;68.71
44441;BME280;30146;52.268;20.944;2023-01-26T06:47:32;101008.05;;;1.97;68.77
44441;BME280;30146;52.268;20.944;2023-01-26T06:50:08;101002.55;;;1.94;68.73
44441;BME280;30146;52.268;20.944;2023-01-26T06:52:41;101000.88;;;1.90;68.64
44441;BME280;30146;52.268;20.944;2023-01-26T06:55:36;100995.35;;;1.86;68.71
44441;BME280;30146;52.268;20.944;2023-01-26T06:58:25;100994.42;;;1.83;68.86
44441;BME280;30146;52.268;20.944;2023-01-26T07:01:18;100995.69;;;1.82;68.95
44441;BME280;30146;52.268;20.944;2023-01-26T07:03:49;100996.16;;;1.80;69.19
44441;BME280;30146;52.268;20.944;2023-01-26T07:06:21;100999.73;;;1.81;69.01
44441;BME280;30146;52.268;20.944;2023-01-26T07:08:52;100999.08;;;1.82;68.89
44441;BME280;30146;52.268;20.944;2023-01-26T07:11:24;100999.23;;;1.82;68.99
44441;BME280;30146;52.268;20.944;2023-01-26T07:13:55;101001.40;;;1.81;68.96
44441;BME280;30146;52.268;20.944;2023-01-26T07:16:26;101001.90;;;1.81;68.82
44441;BME280;30146;52.268;20.944;2023-01-26T07:18:57;100995.26;;;1.79;68.84
44441;BME280;30146;52.268;20.944;2023-01-26T07:21:28;100997.31;;;1.80;68.92
44441;BME280;30146;52.268;20.944;2023-01-26T07:24:00;100993.96;;;1.80;69.09
44441;BME280;30146;52.268;20.944;2023-01-26T07:26:31;100992.91;;;1.80;68.89
44441;BME280;30146;52.268;20.944;2023-01-26T07:29:02;100989.58;;;1.76;68.68
44441;BME280;30146;52.268;20.944;2023-01-26T07:31:32;100985.44;;;1.73;68.84
44441;BME280;30146;52.268;20.944;2023-01-26T07:34:03;100984.89;;;1.71;68.99
44441;BME280;30146;52.268;20.944;2023-01-26T07:36:38;100984.95;;;1.73;69.00
44441;BME280;30146;52.268;20.944;2023-01-26T07:39:10;100984.88;;;1.77;69.10
44441;BME280;30146;52.268;20.944;2023-01-26T07:41:41;100978.61;;;1.80;69.28
44441;BME280;30146;52.268;20.944;2023-01-26T07:44:34;100977.91;;;1.79;68.99
44441;BME280;30146;52.268;20.944;2023-01-26T07:47:05;100979.69;;;1.77;68.89
44441;BME280;30146;52.268;20.944;2023-01-26T07:49:37;100981.45;;;1.75;69.02
44441;BME280;30146;52.268;20.944;2023-01-26T07:52:09;100982.33;;;1.75;69.01
44441;BME280;30146;52.268;20.944;2023-01-26T07:54:40;100982.33;;;1.76;69.20
44441;BME280;30146;52.268;20.944;2023-01-26T07:57:12;100981.69;;;1.72;68.86
44441;BME280;30146;52.268;20.944;2023-01-26T07:59:43;100979.74;;;1.69;68.86
44441;BME280;30146;52.268;20.944;2023-01-26T08:02:14;100981.72;;;1.68;68.91
44441;BME280;30146;52.268;20.944;2023-01-26T08:04:45;100979.04;;;1.68;69.18
44441;BME280;30146;52.268;20.944;2023-01-26T08:07:15;100982.77;;;1.69;68.99
44441;BME280;30146;52.268;20.944;2023-01-26T08:09:46;100981.81;;;1.66;68.80
44441;BME280;30146;52.268;20.944;2023-01-26T08:12:18;100981.60;;;1.65;68.95
44441;BME280;30146;52.268;20.944;2023-01-26T08:14:49;100980.11;;;1.65;69.00
44441;BME280;30146;52.268;20.944;2023-01-26T08:17:20;100979.66;;;1.67;69.15
44441;BME280;30146;52.268;20.944;2023-01-26T08:19:51;100981.18;;;1.67;69.19
44441;BME280;30146;52.268;20.944;2023-01-26T08:22:22;100981.71;;;1.68;68.95
44441;BME280;30146;52.268;20.944;2023-01-26T08:24:53;100977.64;;;1.67;68.97
44441;BME280;30146;52.268;20.944;2023-01-26T08:27:24;100976.99;;;1.68;69.05
44441;BME280;30146;52.268;20.944;2023-01-26T08:29:55;100978.23;;;1.69;68.92
44441;BME280;30146;52.268;20.944;2023-01-26T08:32:30;100974.84;;;1.74;69.13
44441;BME280;30146;52.268;20.944;2023-01-26T08:35:01;100966.27;;;1.79;69.11
44441;BME280;30146;52.268;20.944;2023-01-26T08:37:33;100968.43;;;1.83;68.94
44441;BME280;30146;52.268;20.944;2023-01-26T08:40:06;100966.02;;;1.86;68.96
44441;BME280;30146;52.268;20.944;2023-01-26T08:42:38;100975.02;;;1.87;68.81
44441;BME280;30146;52.268;20.944;2023-01-26T08:45:11;100972.64;;;1.87;68.48
44441;BME280;30146;52.268;20.944;2023-01-26T08:47:42;100972.90;;;1.85;68.41
44441;BME280;30146;52.268;20.944;2023-01-26T08:50:14;100976.06;;;1.89;68.52
44441;BME280;30146;52.268;20.944;2023-01-26T08:52:45;100976.45;;;1.90;68.31
44441;BME280;30146;52.268;20.944;2023-01-26T08:55:17;100980.05;;;1.92;68.35
44441;BME280;30146;52.268;20.944;2023-01-26T08:57:52;100982.06;;;1.92;68.01
44441;BME280;30146;52.268;20.944;2023-01-26T09:00:25;100987.59;;;1.91;67.83
44441;BME280;30146;52.268;20.944;2023-01-26T09:03:01;100991.21;;;1.92;68.18
44441;BME280;30146;52.268;20.944;2023-01-26T09:05:34;100991.98;;;1.91;67.84
44441;BME280;30146;52.268;20.944;2023-01-26T09:08:07;100995.83;;;1.90;67.77
44441;BME280;30146;52.268;20.944;2023-01-26T09:10:39;100993.21;;;1.87;67.74
44441;BME280;30146;52.268;20.944;2023-01-26T09:13:12;100995.95;;;1.88;67.95
44441;BME280;30146;52.268;20.944;2023-01-26T09:15:43;100999.10;;;1.92;67.69
44441;BME280;30146;52.268;20.944;2023-01-26T09:18:14;101000.00;;;1.93;67.55
44441;BME280;30146;52.268;20.944;2023-01-26T09:20:45;100996.95;;;1.93;67.56
44441;BME280;30146;52.268;20.944;2023-01-26T09:23:16;100996.63;;;1.93;67.55
44441;BME280;30146;52.268;20.944;2023-01-26T09:25:53;100998.02;;;1.99;67.73
44441;BME280;30146;52.268;20.944;2023-01-26T09:28:24;100997.48;;;2.03;67.61
44441;BME280;30146;52.268;20.944;2023-01-26T09:30:55;100992.45;;;2.04;67.51
44441;BME280;30146;52.268;20.944;2023-01-26T09:33:26;100993.92;;;2.07;67.71
44441;BME280;30146;52.268;20.944;2023-01-26T09:36:03;100993.56;;;2.11;67.58
44441;BME280;30146;52.268;20.944;2023-01-26T09:38:34;100989.59;;;2.14;67.46
44441;BME280;30146;52.268;20.944;2023-01-26T09:41:12;100987.00;;;2.18;67.23
44441;BME280;30146;52.268;20.944;2023-01-26T09:43:51;100982.29;;;2.17;67.33
44441;BME280;30146;52.268;20.944;2023-01-26T09:46:24;100979.58;;;2.17;67.13
44441;BME280;30146;52.268;20.944;2023-01-26T09:49:04;100982.14;;;2.18;67.42
44441;BME280;30146;52.268;20.944;2023-01-26T09:51:39;100986.64;;;2.21;67.29
44441;BME280;30146;52.268;20.944;2023-01-26T09:54:21;100983.33;;;2.18;66.92
44441;BME280;30146;52.268;20.944;2023-01-26T09:56:56;100977.88;;;2.11;66.54
44441;BME280;30146;52.268;20.944;2023-01-26T09:59:32;100973.17;;;2.07;66.51
44441;BME280;30146;52.268;20.944;2023-01-26T10:02:22;100972.39;;;2.04;66.46
44441;BME280;30146;52.268;20.944;2023-01-26T10:04:59;100968.52;;;2.04;66.64
44441;BME280;30146;52.268;20.944;2023-01-26T10:07:32;100965.28;;;2.03;66.44
44441;BME280;30146;52.268;20.944;2023-01-26T10:10:03;100964.00;;;2.00;66.55
44441;BME280;30146;52.268;20.944;2023-01-26T10:12:35;100954.31;;;1.99;66.64
44441;BME280;30146;52.268;20.944;2023-01-26T10:15:22;100955.92;;;2.01;66.75
44441;BME280;30146;52.268;20.944;2023-01-26T10:18:01;100958.46;;;2.01;66.57
44441;BME280;30146;52.268;20.944;2023-01-26T10:20:36;100959.83;;;2.02;66.56
44441;BME280;30146;52.268;20.944;2023-01-26T10:23:13;100952.67;;;1.99;66.33
44441;BME280;30146;52.268;20.944;2023-01-26T10:25:46;100941.91;;;2.01;66.70
44441;BME280;30146;52.268;20.944;2023-01-26T10:28:20;100938.02;;;2.05;66.48
44441;BME280;30146;52.268;20.944;2023-01-26T10:30:53;100937.59;;;2.08;66.60
44441;BME280;30146;52.268;20.944;2023-01-26T10:33:29;100934.98;;;2.10;66.35
44441;BME280;30146;52.268;20.944;2023-01-26T10:36:02;100930.15;;;2.11;66.55
44441;BME280;30146;52.268;20.944;2023-01-26T10:38:43;100929.39;;;2.14;66.67
44441;BME280;30146;52.268;20.944;2023-01-26T10:41:26;100931.17;;;2.17;66.36
44441;BME280;30146;52.268;20.944;2023-01-26T10:44:00;100927.27;;;2.17;66.37
44441;BME280;30146;52.268;20.944;2023-01-26T10:46:34;100926.38;;;2.15;66.13
44441;BME280;30146;52.268;20.944;2023-01-26T10:49:16;100925.02;;;2.15;66.24
44441;BME280;30146;52.268;20.944;2023-01-26T10:52:06;100919.58;;;2.13;66.37
44441;BME280;30146;52.268;20.944;2023-01-26T10:54:37;100915.45;;;2.16;66.18
44441;BME280;30146;52.268;20.944;2023-01-26T10:57:19;100911.57;;;2.16;66.18
44441;BME280;30146;52.268;20.944;2023-01-26T10:59:54;100900.20;;;2.14;65.96
44441;BME280;30146;52.268;20.944;2023-01-26T11:02:28;100897.92;;;2.11;65.74
44441;BME280;30146;52.268;20.944;2023-01-26T11:05:17;100900.15;;;2.12;66.15
44441;BME280;30146;52.268;20.944;2023-01-26T11:07:50;100897.91;;;2.11;65.81
44441;BME280;30146;52.268;20.944;2023-01-26T11:10:27;100891.00;;;2.11;65.94
44441;BME280;30146;52.268;20.944;2023-01-26T11:13:13;100892.61;;;2.14;66.20
44441;BME280;30146;52.268;20.944;2023-01-26T11:15:46;100886.17;;;2.13;66.01
44441;BME280;30146;52.268;20.944;2023-01-26T11:18:24;100886.92;;;2.15;66.13
44441;BME280;30146;52.268;20.944;2023-01-26T11:21:02;100879.95;;;2.23;66.54
44441;BME280;30146;52.268;20.944;2023-01-26T11:26:43;100873.67;;;2.38;66.53
44441;BME280;30146;52.268;20.944;2023-01-26T11:29:40;100872.14;;;2.43;66.27
44441;BME280;30146;52.268;20.944;2023-01-26T11:32:21;100868.01;;;2.45;66.05
44441;BME280;30146;52.268;20.944;2023-01-26T11:35:06;100860.76;;;2.45;65.84
44441;BME280;30146;52.268;20.944;2023-01-26T11:37:44;100859.52;;;2.49;65.81
44441;BME280;30146;52.268;20.944;2023-01-26T11:40:22;100860.35;;;2.54;66.22
44441;BME280;30146;52.268;20.944;2023-01-26T11:43:20;100861.93;;;2.56;65.75
44441;BME280;30146;52.268;20.944;2023-01-26T11:48:54;100855.98;;;2.55;65.64
44441;BME280;30146;52.268;20.944;2023-01-26T11:51:41;100848.07;;;2.55;65.50
44441;BME280;30146;52.268;20.944;2023-01-26T11:54:29;100848.59;;;2.56;65.62
44441;BME280;30146;52.268;20.944;2023-01-26T11:57:13;100849.11;;;2.56;65.58
44441;BME280;30146;52.268;20.944;2023-01-26T11:59:50;100844.70;;;2.56;65.08
44441;BME280;30146;52.268;20.944;2023-01-26T12:02:28;100842.69;;;2.50;64.94
44441;BME280;30146;52.268;20.944;2023-01-26T12:05:04;100839.51;;;2.46;65.14
44441;BME280;30146;52.268;20.944;2023-01-26T12:07:47;100836.89;;;2.38;64.90
44441;BME280;30146;52.268;20.944;2023-01-26T12:10:26;100839.75;;;2.32;64.93
44441;BME280;30146;52.268;20.944;2023-01-26T12:13:07;100837.96;;;2.34;65.18
44441;BME280;30146;52.268;20.944;2023-01-26T12:15:45;100834.56;;;2.39;65.55
44441;BME280;30146;52.268;20.944;2023-01-26T12:18:22;100834.89;;;2.44;65.60
44441;BME280;30146;52.268;20.944;2023-01-26T12:21:13;100836.41;;;2.44;64.85
44441;BME280;30146;52.268;20.944;2023-01-26T12:23:49;100832.38;;;2.39;65.11
44441;BME280;30146;52.268;20.944;2023-01-26T12:26:23;100833.52;;;2.33;64.88
44441;BME280;30146;52.268;20.944;2023-01-26T12:29:02;100830.51;;;2.28;64.98
44441;BME280;30146;52.268;20.944;2023-01-26T12:31:45;100827.41;;;2.26;65.22
44441;BME280;30146;52.268;20.944;2023-01-26T12:34:24;100829.45;;;2.26;65.26
44441;BME280;30146;52.268;20.944;2023-01-26T12:37:11;100830.03;;;2.29;65.41
44441;BME280;30146;52.268;20.944;2023-01-26T12:39:53;100829.44;;;2.31;65.57
44441;BME280;30146;52.268;20.944;2023-01-26T12:42:38;100829.83;;;2.28;64.83
44441;BME280;30146;52.268;20.944;2023-01-26T12:45:16;100825.98;;;2.24;65.03
44441;BME280;30146;52.268;20.944;2023-01-26T12:47:51;100821.05;;;2.22;64.93
44441;BME280;30146;52.268;20.944;2023-01-26T12:50:28;100815.88;;;2.19;64.83
44441;BME280;30146;52.268;20.944;2023-01-26T12:53:08;100821.81;;;2.15;64.95
44441;BME280;30146;52.268;20.944;2023-01-26T12:55:45;100824.30;;;2.14;65.12
44441;BME280;30146;52.268;20.944;2023-01-26T12:58:20;100824.83;;;2.14;65.11
44441;BME280;30146;52.268;20.944;2023-01-26T13:00:58;100827.55;;;2.15;65.17
44441;BME280;30146;52.268;20.944;2023-01-26T13:03:32;100824.51;;;2.15;65.07
44441;BME280;30146;52.268;20.944;2023-01-26T13:06:20;100826.56;;;2.16;65.18
44441;BME280;30146;52.268;20.944;2023-01-26T13:09:01;100821.96;;;2.14;65.02
44441;BME280;30146;52.268;20.944;2023-01-26T13:11:44;100820.33;;;2.10;64.76
44441;BME280;30146;52.268;20.944;2023-01-26T13:14:35;100818.21;;;2.08;64.98
44441;BME280;30146;52.268;20.944;2023-01-26T13:20:28;100815.77;;;2.10;65.14
44441;BME280;30146;52.268;20.944;2023-01-26T13:23:41;100810.84;;;2.09;64.97
44441;BME280;30146;52.268;20.944;2023-01-26T13:26:20;100814.16;;;2.07;65.09
44441;BME280;30146;52.268;20.944;2023-01-26T13:29:29;100805.41;;;2.03;64.86
44441;BME280;30146;52.268;20.944;2023-01-26T13:35:26;100806.95;;;2.04;65.01
44441;BME280;30146;52.268;20.944;2023-01-26T13:38:06;100803.02;;;2.02;65.05
44441;BME280;30146;52.268;20.944;2023-01-26T13:40:44;100803.36;;;2.02;65.04
44441;BME280;30146;52.268;20.944;2023-01-26T13:43:29;100807.67;;;2.05;65.17
44441;BME280;30146;52.268;20.944;2023-01-26T13:46:17;100805.17;;;2.06;65.32
44441;BME280;30146;52.268;20.944;2023-01-26T13:48:50;100806.61;;;2.08;65.28
44441;BME280;30146;52.268;20.944;2023-01-26T13:51:23;100801.98;;;2.12;65.26